sensor_id;sensor_type;location;lat;lon;timestamp;P1;durP1;ratioP1;P2;durP2;ratioP2
19388;SDS011;9830;41.876;23.474;2024-01-06T00:00:26;12.07;;;2.90;;
19388;SDS011;9830;41.876;23.474;2024-01-06T00:03:27;2.13;;;1.73;;
19388;SDS011;9830;41.876;23.474;2024-01-06T00:06:21;2.17;;;1.77;;
19388;SDS011;9830;41.876;23.474;2024-01-06T00:09:33;3.07;;;1.73;;
19388;SDS011;9830;41.876;23.474;2024-01-06T00:12:25;3.43;;;1.93;;
19388;SDS011;9830;41.876;23.474;2024-01-06T00:15:29;2.93;;;2.23;;
19388;SDS011;9830;41.876;23.474;2024-01-06T00:18:24;1.17;;;1.07;;
19388;SDS011;9830;41.876;23.474;2024-01-06T00:21:28;14.20;;;3.70;;
19388;SDS011;9830;41.876;23.474;2024-01-06T00:24:22;3.13;;;1.53;;
19388;SDS011;9830;41.876;23.474;2024-01-06T00:27:22;3.80;;;3.10;;
19388;SDS011;9830;41.876;23.474;2024-01-06T00:30:27;8.37;;;5.47;;
19388;SDS011;9830;41.876;23.474;2024-01-06T00:33:38;2.53;;;2.13;;
19388;SDS011;9830;41.876;23.474;2024-01-06T00:36:34;3.73;;;3.07;;
19388;SDS011;9830;41.876;23.474;2024-01-06T00:39:44;4.27;;;2.73;;
19388;SDS011;9830;41.876;23.474;2024-01-06T00:42:31;4.53;;;3.33;;
19388;SDS011;9830;41.876;23.474;2024-01-06T00:45:33;6.50;;;4.50;;
19388;SDS011;9830;41.876;23.474;2024-01-06T00:48:29;1.57;;;1.47;;
19388;SDS011;9830;41.876;23.474;2024-01-06T00:54:48;2.33;;;2.00;;
19388;SDS011;9830;41.876;23.474;2024-01-06T00:57:46;2.73;;;2.13;;
19388;SDS011;9830;41.876;23.474;2024-01-06T01:00:42;2.93;;;2.70;;
19388;SDS011;9830;41.876;23.474;2024-01-06T01:03:38;1.57;;;1.43;;
19388;SDS011;9830;41.876;23.474;2024-01-06T01:06:50;6.20;;;3.97;;
19388;SDS011;9830;41.876;23.474;2024-01-06T01:09:42;3.30;;;2.50;;
19388;SDS011;9830;41.876;23.474;2024-01-06T01:12:56;12.67;;;2.33;;
19388;SDS011;9830;41.876;23.474;2024-01-06T01:16:04;3.07;;;2.67;;
19388;SDS011;9830;41.876;23.474;2024-01-06T01:19:21;3.40;;;3.10;;
19388;SDS011;9830;41.876;23.474;2024-01-06T01:22:21;12.17;;;2.10;;
19388;SDS011;9830;41.876;23.474;2024-01-06T01:25:14;12.77;;;4.17;;
19388;SDS011;9830;41.876;23.474;2024-01-06T01:28:05;1.53;;;1.47;;
19388;SDS011;9830;41.876;23.474;2024-01-06T01:30:57;5.47;;;3.50;;
19388;SDS011;9830;41.876;23.474;2024-01-06T01:33:51;3.93;;;2.93;;
19388;SDS011;9830;41.876;23.474;2024-01-06T01:36:34;1.93;;;1.57;;
19388;SDS011;9830;41.876;23.474;2024-01-06T01:39:18;5.43;;;2.80;;
19388;SDS011;9830;41.876;23.474;2024-01-06T01:42:08;2.23;;;1.90;;
19388;SDS011;9830;41.876;23.474;2024-01-06T01:44:52;4.07;;;2.33;;
19388;SDS011;9830;41.876;23.474;2024-01-06T01:47:51;11.63;;;4.00;;
19388;SDS011;9830;41.876;23.474;2024-01-06T01:50:40;2.67;;;2.43;;
19388;SDS011;9830;41.876;23.474;2024-01-06T01:53:34;2.27;;;2.17;;
19388;SDS011;9830;41.876;23.474;2024-01-06T01:56:30;4.17;;;3.37;;
19388;SDS011;9830;41.876;23.474;2024-01-06T01:59:49;15.53;;;4.40;;
19388;SDS011;9830;41.876;23.474;2024-01-06T02:02:45;6.60;;;3.83;;
19388;SDS011;9830;41.876;23.474;2024-01-06T02:05:31;4.03;;;3.40;;
19388;SDS011;9830;41.876;23.474;2024-01-06T02:08:24;2.17;;;2.00;;
19388;SDS011;9830;41.876;23.474;2024-01-06T02:11:15;4.60;;;2.90;;
19388;SDS011;9830;41.876;23.474;2024-01-06T02:14:15;3.50;;;2.50;;
19388;SDS011;9830;41.876;23.474;2024-01-06T02:17:08;3.40;;;3.10;;
19388;SDS011;9830;41.876;23.474;2024-01-06T02:20:07;7.00;;;3.40;;
19388;SDS011;9830;41.876;23.474;2024-01-06T02:23:01;2.77;;;2.50;;
19388;SDS011;9830;41.876;23.474;2024-01-06T02:25:49;10.17;;;3.60;;
19388;SDS011;9830;41.876;23.474;2024-01-06T02:28:51;3.23;;;2.63;;
19388;SDS011;9830;41.876;23.474;2024-01-06T02:31:43;3.00;;;2.57;;
19388;SDS011;9830;41.876;23.474;2024-01-06T02:34:32;4.23;;;3.43;;
19388;SDS011;9830;41.876;23.474;2024-01-06T02:37:50;1.27;;;1.17;;
19388;SDS011;9830;41.876;23.474;2024-01-06T02:40:54;4.13;;;3.73;;
19388;SDS011;9830;41.876;23.474;2024-01-06T02:43:43;8.50;;;4.50;;
19388;SDS011;9830;41.876;23.474;2024-01-06T02:46:43;6.70;;;2.73;;
19388;SDS011;9830;41.876;23.474;2024-01-06T02:49:24;5.13;;;2.77;;
19388;SDS011;9830;41.876;23.474;2024-01-06T02:52:14;2.80;;;2.40;;
19388;SDS011;9830;41.876;23.474;2024-01-06T02:55:10;3.20;;;3.07;;
19388;SDS011;9830;41.876;23.474;2024-01-06T02:57:57;4.87;;;1.97;;
19388;SDS011;9830;41.876;23.474;2024-01-06T03:01:07;6.90;;;3.67;;
19388;SDS011;9830;41.876;23.474;2024-01-06T03:03:52;1.40;;;1.30;;
19388;SDS011;9830;41.876;23.474;2024-01-06T03:06:55;3.00;;;2.80;;
19388;SDS011;9830;41.876;23.474;2024-01-06T03:09:44;0.83;;;0.83;;
19388;SDS011;9830;41.876;23.474;2024-01-06T03:12:46;2.77;;;2.30;;
19388;SDS011;9830;41.876;23.474;2024-01-06T03:15:34;3.40;;;3.10;;
19388;SDS011;9830;41.876;23.474;2024-01-06T03:18:38;2.03;;;1.93;;
19388;SDS011;9830;41.876;23.474;2024-01-06T03:21:51;8.47;;;5.43;;
19388;SDS011;9830;41.876;23.474;2024-01-06T03:24:45;4.60;;;3.90;;
19388;SDS011;9830;41.876;23.474;2024-01-06T03:27:40;1.97;;;1.87;;
19388;SDS011;9830;41.876;23.474;2024-01-06T03:30:36;4.83;;;3.07;;
19388;SDS011;9830;41.876;23.474;2024-01-06T03:33:30;7.57;;;4.07;;
19388;SDS011;9830;41.876;23.474;2024-01-06T03:36:17;3.50;;;2.50;;
19388;SDS011;9830;41.876;23.474;2024-01-06T03:39:12;9.40;;;3.90;;
19388;SDS011;9830;41.876;23.474;2024-01-06T03:42:00;6.83;;;2.57;;
19388;SDS011;9830;41.876;23.474;2024-01-06T03:44:51;4.43;;;3.33;;
19388;SDS011;9830;41.876;23.474;2024-01-06T03:47:45;2.73;;;2.40;;
19388;SDS011;9830;41.876;23.474;2024-01-06T03:50:49;2.87;;;1.53;;
19388;SDS011;9830;41.876;23.474;2024-01-06T03:53:46;4.10;;;2.57;;
19388;SDS011;9830;41.876;23.474;2024-01-06T03:56:49;1.50;;;1.40;;
19388;SDS011;9830;41.876;23.474;2024-01-06T03:59:41;3.73;;;1.97;;
19388;SDS011;9830;41.876;23.474;2024-01-06T04:02:30;2.80;;;2.00;;
19388;SDS011;9830;41.876;23.474;2024-01-06T04:05:21;8.80;;;2.50;;
19388;SDS011;9830;41.876;23.474;2024-01-06T04:08:07;4.73;;;2.67;;
19388;SDS011;9830;41.876;23.474;2024-01-06T04:11:09;6.87;;;3.03;;
19388;SDS011;9830;41.876;23.474;2024-01-06T04:14:02;10.93;;;4.13;;
19388;SDS011;9830;41.876;23.474;2024-01-06T04:16:53;8.07;;;3.13;;
19388;SDS011;9830;41.876;23.474;2024-01-06T04:19:43;4.67;;;3.37;;
19388;SDS011;9830;41.876;23.474;2024-01-06T04:22:32;9.43;;;3.90;;
19388;SDS011;9830;41.876;23.474;2024-01-06T04:25:22;3.17;;;2.87;;
19388;SDS011;9830;41.876;23.474;2024-01-06T04:28:20;10.97;;;2.90;;
19388;SDS011;9830;41.876;23.474;2024-01-06T04:31:34;2.77;;;2.13;;
19388;SDS011;9830;41.876;23.474;2024-01-06T04:34:24;2.27;;;2.13;;
19388;SDS011;9830;41.876;23.474;2024-01-06T04:37:29;6.30;;;2.03;;
19388;SDS011;9830;41.876;23.474;2024-01-06T04:40:35;4.93;;;2.23;;
19388;SDS011;9830;41.876;23.474;2024-01-06T04:43:37;1.70;;;1.60;;
19388;SDS011;9830;41.876;23.474;2024-01-06T04:46:25;1.40;;;1.30;;
19388;SDS011;9830;41.876;23.474;2024-01-06T04:49:12;9.60;;;2.90;;
19388;SDS011;9830;41.876;23.474;2024-01-06T04:52:43;5.50;;;2.67;;
19388;SDS011;9830;41.876;23.474;2024-01-06T04:55:49;5.57;;;2.90;;
19388;SDS011;9830;41.876;23.474;2024-01-06T04:58:43;10.07;;;3.63;;
19388;SDS011;9830;41.876;23.474;2024-01-06T05:01:32;4.43;;;3.40;;
19388;SDS011;9830;41.876;23.474;2024-01-06T05:04:17;5.07;;;3.97;;
19388;SDS011;9830;41.876;23.474;2024-01-06T05:07:25;8.87;;;3.43;;
19388;SDS011;9830;41.876;23.474;2024-01-06T05:13:48;2.10;;;1.70;;
19388;SDS011;9830;41.876;23.474;2024-01-06T05:16:38;4.87;;;2.10;;
19388;SDS011;9830;41.876;23.474;2024-01-06T05:19:41;2.63;;;2.17;;
19388;SDS011;9830;41.876;23.474;2024-01-06T05:22:38;1.63;;;1.57;;
19388;SDS011;9830;41.876;23.474;2024-01-06T05:25:56;6.93;;;1.97;;
19388;SDS011;9830;41.876;23.474;2024-01-06T05:28:51;2.73;;;2.53;;
19388;SDS011;9830;41.876;23.474;2024-01-06T05:32:02;5.00;;;1.80;;
19388;SDS011;9830;41.876;23.474;2024-01-06T05:34:57;1.77;;;1.33;;
19388;SDS011;9830;41.876;23.474;2024-01-06T05:37:40;2.87;;;0.70;;
19388;SDS011;9830;41.876;23.474;2024-01-06T05:40:39;1.13;;;1.03;;
19388;SDS011;9830;41.876;23.474;2024-01-06T05:43:35;0.90;;;0.90;;
19388;SDS011;9830;41.876;23.474;2024-01-06T05:46:42;1.93;;;1.83;;
19388;SDS011;9830;41.876;23.474;2024-01-06T05:49:45;7.37;;;4.13;;
19388;SDS011;9830;41.876;23.474;2024-01-06T05:55:58;3.67;;;2.30;;
19388;SDS011;9830;41.876;23.474;2024-01-06T05:58:59;8.67;;;3.23;;
19388;SDS011;9830;41.876;23.474;2024-01-06T06:02:03;3.93;;;3.57;;
19388;SDS011;9830;41.876;23.474;2024-01-06T06:04:59;10.17;;;3.23;;
19388;SDS011;9830;41.876;23.474;2024-01-06T06:08:01;8.13;;;4.03;;
19388;SDS011;9830;41.876;23.474;2024-01-06T06:10:58;8.90;;;5.27;;
19388;SDS011;9830;41.876;23.474;2024-01-06T06:14:00;5.10;;;4.70;;
19388;SDS011;9830;41.876;23.474;2024-01-06T06:17:06;8.37;;;5.80;;
19388;SDS011;9830;41.876;23.474;2024-01-06T06:19:52;16.00;;;4.90;;
19388;SDS011;9830;41.876;23.474;2024-01-06T06:22:44;5.90;;;4.00;;
19388;SDS011;9830;41.876;23.474;2024-01-06T06:25:54;10.40;;;6.13;;
19388;SDS011;9830;41.876;23.474;2024-01-06T06:28:50;11.97;;;5.70;;
19388;SDS011;9830;41.876;23.474;2024-01-06T06:31:34;7.73;;;4.47;;
19388;SDS011;9830;41.876;23.474;2024-01-06T06:34:35;5.83;;;4.43;;
19388;SDS011;9830;41.876;23.474;2024-01-06T06:37:36;7.00;;;5.00;;
19388;SDS011;9830;41.876;23.474;2024-01-06T06:40:26;29.20;;;8.33;;
19388;SDS011;9830;41.876;23.474;2024-01-06T06:43:20;10.23;;;4.77;;
19388;SDS011;9830;41.876;23.474;2024-01-06T06:46:10;11.73;;;5.47;;
19388;SDS011;9830;41.876;23.474;2024-01-06T06:49:13;4.70;;;3.53;;
19388;SDS011;9830;41.876;23.474;2024-01-06T06:52:27;2.80;;;2.57;;
19388;SDS011;9830;41.876;23.474;2024-01-06T06:55:26;3.50;;;2.17;;
19388;SDS011;9830;41.876;23.474;2024-01-06T06:58:30;1.87;;;1.00;;
19388;SDS011;9830;41.876;23.474;2024-01-06T07:01:23;2.47;;;2.27;;
19388;SDS011;9830;41.876;23.474;2024-01-06T07:04:09;2.93;;;1.47;;
19388;SDS011;9830;41.876;23.474;2024-01-06T07:07:07;2.00;;;1.90;;
19388;SDS011;9830;41.876;23.474;2024-01-06T07:10:11;7.97;;;2.57;;
19388;SDS011;9830;41.876;23.474;2024-01-06T07:12:59;1.63;;;1.47;;
19388;SDS011;9830;41.876;23.474;2024-01-06T07:16:19;2.47;;;2.27;;
19388;SDS011;9830;41.876;23.474;2024-01-06T07:19:21;4.97;;;4.07;;
19388;SDS011;9830;41.876;23.474;2024-01-06T07:25:38;3.57;;;2.13;;
19388;SDS011;9830;41.876;23.474;2024-01-06T07:28:36;3.13;;;2.53;;
19388;SDS011;9830;41.876;23.474;2024-01-06T07:31:21;5.70;;;4.00;;
19388;SDS011;9830;41.876;23.474;2024-01-06T07:34:14;4.03;;;2.43;;
19388;SDS011;9830;41.876;23.474;2024-01-06T07:37:09;3.53;;;3.23;;
19388;SDS011;9830;41.876;23.474;2024-01-06T07:40:09;6.43;;;4.20;;
19388;SDS011;9830;41.876;23.474;2024-01-06T07:43:12;2.90;;;2.70;;
19388;SDS011;9830;41.876;23.474;2024-01-06T07:46:09;3.03;;;2.77;;
19388;SDS011;9830;41.876;23.474;2024-01-06T07:49:18;13.43;;;4.77;;
19388;SDS011;9830;41.876;23.474;2024-01-06T07:52:08;8.23;;;4.17;;
19388;SDS011;9830;41.876;23.474;2024-01-06T07:55:29;4.57;;;4.17;;
19388;SDS011;9830;41.876;23.474;2024-01-06T07:58:36;6.47;;;4.73;;
19388;SDS011;9830;41.876;23.474;2024-01-06T08:01:53;4.07;;;3.80;;
19388;SDS011;9830;41.876;23.474;2024-01-06T08:04:44;6.00;;;3.43;;
19388;SDS011;9830;41.876;23.474;2024-01-06T08:07:46;5.03;;;4.13;;
19388;SDS011;9830;41.876;23.474;2024-01-06T08:10:57;10.00;;;3.93;;
19388;SDS011;9830;41.876;23.474;2024-01-06T08:13:48;2.23;;;2.13;;
19388;SDS011;9830;41.876;23.474;2024-01-06T08:16:49;8.13;;;4.10;;
19388;SDS011;9830;41.876;23.474;2024-01-06T08:20:00;4.73;;;3.53;;
19388;SDS011;9830;41.876;23.474;2024-01-06T08:26:08;2.93;;;2.43;;
19388;SDS011;9830;41.876;23.474;2024-01-06T08:29:03;4.67;;;3.10;;
19388;SDS011;9830;41.876;23.474;2024-01-06T08:31:50;5.03;;;2.67;;
19388;SDS011;9830;41.876;23.474;2024-01-06T08:34:38;2.10;;;1.37;;
19388;SDS011;9830;41.876;23.474;2024-01-06T08:37:45;3.13;;;2.80;;
19388;SDS011;9830;41.876;23.474;2024-01-06T08:40:35;9.13;;;4.43;;
19388;SDS011;9830;41.876;23.474;2024-01-06T08:43:36;1.53;;;1.43;;
19388;SDS011;9830;41.876;23.474;2024-01-06T08:46:29;2.73;;;2.47;;
19388;SDS011;9830;41.876;23.474;2024-01-06T08:49:25;2.07;;;1.97;;
19388;SDS011;9830;41.876;23.474;2024-01-06T08:52:18;4.53;;;3.83;;
19388;SDS011;9830;41.876;23.474;2024-01-06T08:55:21;2.20;;;2.00;;
19388;SDS011;9830;41.876;23.474;2024-01-06T08:58:17;2.80;;;2.60;;
19388;SDS011;9830;41.876;23.474;2024-01-06T09:01:32;1.53;;;1.47;;
19388;SDS011;9830;41.876;23.474;2024-01-06T09:04:33;4.53;;;1.97;;
19388;SDS011;9830;41.876;23.474;2024-01-06T09:07:34;2.43;;;2.20;;
19388;SDS011;9830;41.876;23.474;2024-01-06T09:10:28;1.23;;;1.23;;
19388;SDS011;9830;41.876;23.474;2024-01-06T09:13:43;4.70;;;2.37;;
19388;SDS011;9830;41.876;23.474;2024-01-06T09:16:34;2.43;;;2.27;;
19388;SDS011;9830;41.876;23.474;2024-01-06T09:19:39;2.50;;;2.30;;
19388;SDS011;9830;41.876;23.474;2024-01-06T09:22:24;1.60;;;1.50;;
19388;SDS011;9830;41.876;23.474;2024-01-06T09:25:18;4.67;;;2.13;;
19388;SDS011;9830;41.876;23.474;2024-01-06T09:28:20;2.67;;;2.47;;
19388;SDS011;9830;41.876;23.474;2024-01-06T09:31:11;4.97;;;2.43;;
19388;SDS011;9830;41.876;23.474;2024-01-06T09:34:03;2.47;;;2.10;;
19388;SDS011;9830;41.876;23.474;2024-01-06T09:37:20;4.63;;;2.30;;
19388;SDS011;9830;41.876;23.474;2024-01-06T09:40:19;3.30;;;3.03;;
19388;SDS011;9830;41.876;23.474;2024-01-06T09:43:24;2.60;;;2.47;;
19388;SDS011;9830;41.876;23.474;2024-01-06T09:46:21;6.53;;;3.73;;
19388;SDS011;9830;41.876;23.474;2024-01-06T09:49:29;4.80;;;2.93;;
19388;SDS011;9830;41.876;23.474;2024-01-06T09:52:41;9.03;;;4.27;;
19388;SDS011;9830;41.876;23.474;2024-01-06T09:55:43;5.30;;;3.97;;
19388;SDS011;9830;41.876;23.474;2024-01-06T09:58:44;2.97;;;2.77;;
19388;SDS011;9830;41.876;23.474;2024-01-06T10:01:55;1.47;;;1.37;;
19388;SDS011;9830;41.876;23.474;2024-01-06T10:04:53;0.87;;;0.87;;
19388;SDS011;9830;41.876;23.474;2024-01-06T10:08:08;7.43;;;1.37;;
19388;SDS011;9830;41.876;23.474;2024-01-06T10:11:28;2.97;;;2.00;;
19388;SDS011;9830;41.876;23.474;2024-01-06T10:14:29;2.03;;;1.87;;
19388;SDS011;9830;41.876;23.474;2024-01-06T10:20:56;3.77;;;3.47;;
19388;SDS011;9830;41.876;23.474;2024-01-06T10:24:17;2.23;;;2.03;;
19388;SDS011;9830;41.876;23.474;2024-01-06T10:27:04;2.30;;;2.20;;
19388;SDS011;9830;41.876;23.474;2024-01-06T10:30:01;4.27;;;3.33;;
19388;SDS011;9830;41.876;23.474;2024-01-06T10:33:15;2.90;;;1.57;;
19388;SDS011;9830;41.876;23.474;2024-01-06T10:36:30;7.80;;;3.80;;
19388;SDS011;9830;41.876;23.474;2024-01-06T10:39:27;3.00;;;2.43;;
19388;SDS011;9830;41.876;23.474;2024-01-06T10:42:24;3.37;;;2.03;;
19388;SDS011;9830;41.876;23.474;2024-01-06T10:45:17;9.20;;;4.57;;
19388;SDS011;9830;41.876;23.474;2024-01-06T10:48:07;5.47;;;2.63;;
19388;SDS011;9830;41.876;23.474;2024-01-06T10:51:09;6.63;;;2.90;;
19388;SDS011;9830;41.876;23.474;2024-01-06T10:54:12;6.80;;;2.77;;
19388;SDS011;9830;41.876;23.474;2024-01-06T10:57:28;2.23;;;2.03;;
19388;SDS011;9830;41.876;23.474;2024-01-06T11:00:28;1.73;;;1.63;;
19388;SDS011;9830;41.876;23.474;2024-01-06T11:03:18;1.20;;;1.20;;
19388;SDS011;9830;41.876;23.474;2024-01-06T11:06:06;9.23;;;2.53;;
19388;SDS011;9830;41.876;23.474;2024-01-06T11:09:02;0.47;;;0.47;;
19388;SDS011;9830;41.876;23.474;2024-01-06T11:12:08;5.17;;;1.63;;
19388;SDS011;9830;41.876;23.474;2024-01-06T11:14:58;0.40;;;0.40;;
19388;SDS011;9830;41.876;23.474;2024-01-06T11:18:02;1.17;;;1.10;;
19388;SDS011;9830;41.876;23.474;2024-01-06T11:21:25;2.03;;;1.83;;
19388;SDS011;9830;41.876;23.474;2024-01-06T11:24:21;1.03;;;0.90;;
19388;SDS011;9830;41.876;23.474;2024-01-06T11:27:32;0.47;;;0.47;;
19388;SDS011;9830;41.876;23.474;2024-01-06T11:30:51;0.43;;;0.43;;
19388;SDS011;9830;41.876;23.474;2024-01-06T11:33:56;2.93;;;1.20;;
19388;SDS011;9830;41.876;23.474;2024-01-06T11:37:06;0.10;;;0.10;;
19388;SDS011;9830;41.876;23.474;2024-01-06T11:39:56;0.87;;;0.60;;
19388;SDS011;9830;41.876;23.474;2024-01-06T11:42:56;1.67;;;1.47;;
19388;SDS011;9830;41.876;23.474;2024-01-06T11:45:53;2.07;;;1.87;;
19388;SDS011;9830;41.876;23.474;2024-01-06T11:48:48;0.93;;;0.93;;
19388;SDS011;9830;41.876;23.474;2024-01-06T11:51:52;0.73;;;0.73;;
19388;SDS011;9830;41.876;23.474;2024-01-06T11:54:45;1.37;;;1.27;;
19388;SDS011;9830;41.876;23.474;2024-01-06T11:57:40;0.83;;;0.83;;
19388;SDS011;9830;41.876;23.474;2024-01-06T12:03:53;0.83;;;0.80;;
19388;SDS011;9830;41.876;23.474;2024-01-06T12:06:45;1.37;;;1.00;;
19388;SDS011;9830;41.876;23.474;2024-01-06T12:10:27;8.13;;;2.00;;
19388;SDS011;9830;41.876;23.474;2024-01-06T12:13:07;1.90;;;1.57;;
19388;SDS011;9830;41.876;23.474;2024-01-06T12:16:29;1.07;;;1.07;;
19388;SDS011;9830;41.876;23.474;2024-01-06T12:19:32;0.40;;;0.40;;
19388;SDS011;9830;41.876;23.474;2024-01-06T12:22:44;0.70;;;0.70;;
19388;SDS011;9830;41.876;23.474;2024-01-06T12:25:41;5.33;;;1.47;;
19388;SDS011;9830;41.876;23.474;2024-01-06T12:28:40;0.73;;;0.73;;
19388;SDS011;9830;41.876;23.474;2024-01-06T12:31:46;0.60;;;0.60;;
19388;SDS011;9830;41.876;23.474;2024-01-06T12:34:43;0.67;;;0.67;;
19388;SDS011;9830;41.876;23.474;2024-01-06T12:37:38;25.87;;;1.43;;
19388;SDS011;9830;41.876;23.474;2024-01-06T12:40:39;1.37;;;0.93;;
19388;SDS011;9830;41.876;23.474;2024-01-06T12:43:37;1.57;;;0.63;;
19388;SDS011;9830;41.876;23.474;2024-01-06T12:46:39;1.80;;;1.10;;
19388;SDS011;9830;41.876;23.474;2024-01-06T12:49:28;0.80;;;0.80;;
19388;SDS011;9830;41.876;23.474;2024-01-06T12:52:40;1.90;;;1.33;;
19388;SDS011;9830;41.876;23.474;2024-01-06T12:55:43;1.83;;;1.30;;
19388;SDS011;9830;41.876;23.474;2024-01-06T12:58:41;0.47;;;0.47;;
19388;SDS011;9830;41.876;23.474;2024-01-06T13:01:39;2.20;;;1.63;;
19388;SDS011;9830;41.876;23.474;2024-01-06T13:04:41;0.43;;;0.40;;
19388;SDS011;9830;41.876;23.474;2024-01-06T13:07:32;0.80;;;0.50;;
19388;SDS011;9830;41.876;23.474;2024-01-06T13:10:24;0.93;;;0.93;;
19388;SDS011;9830;41.876;23.474;2024-01-06T13:13:14;0.73;;;0.73;;
19388;SDS011;9830;41.876;23.474;2024-01-06T13:16:14;0.63;;;0.63;;
19388;SDS011;9830;41.876;23.474;2024-01-06T13:19:12;1.50;;;1.40;;
19388;SDS011;9830;41.876;23.474;2024-01-06T13:22:02;3.07;;;1.37;;
19388;SDS011;9830;41.876;23.474;2024-01-06T13:24:55;4.60;;;1.63;;
19388;SDS011;9830;41.876;23.474;2024-01-06T13:27:59;1.00;;;0.50;;
19388;SDS011;9830;41.876;23.474;2024-01-06T13:34:05;1.40;;;1.33;;
19388;SDS011;9830;41.876;23.474;2024-01-06T13:37:16;0.40;;;0.40;;
19388;SDS011;9830;41.876;23.474;2024-01-06T13:40:13;1.20;;;1.03;;
19388;SDS011;9830;41.876;23.474;2024-01-06T13:43:10;2.10;;;1.17;;
19388;SDS011;9830;41.876;23.474;2024-01-06T13:46:05;0.60;;;0.60;;
19388;SDS011;9830;41.876;23.474;2024-01-06T13:49:10;1.53;;;1.03;;
19388;SDS011;9830;41.876;23.474;2024-01-06T13:52:17;0.43;;;0.43;;
19388;SDS011;9830;41.876;23.474;2024-01-06T13:55:09;4.13;;;0.47;;
19388;SDS011;9830;41.876;23.474;2024-01-06T13:58:11;0.97;;;0.97;;
19388;SDS011;9830;41.876;23.474;2024-01-06T14:01:24;0.70;;;0.70;;
19388;SDS011;9830;41.876;23.474;2024-01-06T14:07:36;0.33;;;0.33;;
19388;SDS011;9830;41.876;23.474;2024-01-06T14:10:27;4.33;;;1.83;;
19388;SDS011;9830;41.876;23.474;2024-01-06T14:13:34;1.23;;;1.17;;
19388;SDS011;9830;41.876;23.474;2024-01-06T14:16:37;1.10;;;1.07;;
19388;SDS011;9830;41.876;23.474;2024-01-06T14:19:41;1.40;;;0.77;;
19388;SDS011;9830;41.876;23.474;2024-01-06T14:22:44;1.77;;;1.33;;
19388;SDS011;9830;41.876;23.474;2024-01-06T14:25:37;1.40;;;1.30;;
19388;SDS011;9830;41.876;23.474;2024-01-06T14:28:36;0.97;;;0.97;;
19388;SDS011;9830;41.876;23.474;2024-01-06T14:31:32;1.33;;;0.80;;
19388;SDS011;9830;41.876;23.474;2024-01-06T14:34:41;0.87;;;0.87;;
19388;SDS011;9830;41.876;23.474;2024-01-06T14:37:49;0.27;;;0.27;;
19388;SDS011;9830;41.876;23.474;2024-01-06T14:40:51;0.87;;;0.87;;
19388;SDS011;9830;41.876;23.474;2024-01-06T14:44:13;1.20;;;0.87;;
19388;SDS011;9830;41.876;23.474;2024-01-06T14:47:09;2.63;;;1.13;;
19388;SDS011;9830;41.876;23.474;2024-01-06T14:49:55;0.57;;;0.57;;
19388;SDS011;9830;41.876;23.474;2024-01-06T14:52:38;1.50;;;0.70;;
19388;SDS011;9830;41.876;23.474;2024-01-06T14:55:31;2.33;;;0.87;;
19388;SDS011;9830;41.876;23.474;2024-01-06T14:58:33;0.40;;;0.40;;
19388;SDS011;9830;41.876;23.474;2024-01-06T15:01:35;0.77;;;0.77;;
19388;SDS011;9830;41.876;23.474;2024-01-06T15:04:37;0.30;;;0.30;;
19388;SDS011;9830;41.876;23.474;2024-01-06T15:07:26;0.30;;;0.30;;
19388;SDS011;9830;41.876;23.474;2024-01-06T15:10:32;0.60;;;0.60;;
19388;SDS011;9830;41.876;23.474;2024-01-06T15:13:30;0.13;;;0.13;;
19388;SDS011;9830;41.876;23.474;2024-01-06T15:16:31;0.50;;;0.50;;
19388;SDS011;9830;41.876;23.474;2024-01-06T15:19:45;1.53;;;1.43;;
19388;SDS011;9830;41.876;23.474;2024-01-06T15:23:04;2.33;;;1.17;;
19388;SDS011;9830;41.876;23.474;2024-01-06T15:25:56;3.97;;;0.90;;
19388;SDS011;9830;41.876;23.474;2024-01-06T15:29:20;1.43;;;1.13;;
19388;SDS011;9830;41.876;23.474;2024-01-06T15:32:16;0.17;;;0.17;;
19388;SDS011;9830;41.876;23.474;2024-01-06T15:35:11;0.40;;;0.33;;
19388;SDS011;9830;41.876;23.474;2024-01-06T15:38:17;0.43;;;0.43;;
19388;SDS011;9830;41.876;23.474;2024-01-06T15:41:07;1.03;;;0.93;;
19388;SDS011;9830;41.876;23.474;2024-01-06T15:44:08;2.03;;;1.30;;
19388;SDS011;9830;41.876;23.474;2024-01-06T15:47:22;3.23;;;1.63;;
19388;SDS011;9830;41.876;23.474;2024-01-06T15:50:29;0.90;;;0.90;;
19388;SDS011;9830;41.876;23.474;2024-01-06T15:53:35;2.33;;;1.80;;
19388;SDS011;9830;41.876;23.474;2024-01-06T15:56:30;1.93;;;1.33;;
19388;SDS011;9830;41.876;23.474;2024-01-06T15:59:43;2.17;;;2.07;;
19388;SDS011;9830;41.876;23.474;2024-01-06T16:02:52;4.63;;;2.77;;
19388;SDS011;9830;41.876;23.474;2024-01-06T16:05:57;1.30;;;1.27;;
19388;SDS011;9830;41.876;23.474;2024-01-06T16:09:23;6.63;;;2.30;;
19388;SDS011;9830;41.876;23.474;2024-01-06T16:12:38;2.23;;;2.03;;
19388;SDS011;9830;41.876;23.474;2024-01-06T16:15:18;1.77;;;1.67;;
19388;SDS011;9830;41.876;23.474;2024-01-06T16:18:22;5.67;;;1.73;;
19388;SDS011;9830;41.876;23.474;2024-01-06T16:24:35;1.70;;;1.53;;
19388;SDS011;9830;41.876;23.474;2024-01-06T16:27:34;2.20;;;2.07;;
19388;SDS011;9830;41.876;23.474;2024-01-06T16:30:20;3.37;;;2.40;;
19388;SDS011;9830;41.876;23.474;2024-01-06T16:33:30;2.40;;;1.27;;
19388;SDS011;9830;41.876;23.474;2024-01-06T16:36:19;1.97;;;1.80;;
19388;SDS011;9830;41.876;23.474;2024-01-06T16:39:13;2.10;;;1.77;;
19388;SDS011;9830;41.876;23.474;2024-01-06T16:42:07;0.20;;;0.20;;
19388;SDS011;9830;41.876;23.474;2024-01-06T16:44:53;2.77;;;1.00;;
19388;SDS011;9830;41.876;23.474;2024-01-06T16:48:00;0.50;;;0.50;;
19388;SDS011;9830;41.876;23.474;2024-01-06T16:51:01;0.47;;;0.40;;
19388;SDS011;9830;41.876;23.474;2024-01-06T16:54:07;3.60;;;1.43;;
19388;SDS011;9830;41.876;23.474;2024-01-06T16:57:00;0.00;;;0.00;;
19388;SDS011;9830;41.876;23.474;2024-01-06T16:59:50;0.67;;;0.67;;
19388;SDS011;9830;41.876;23.474;2024-01-06T17:02:43;0.33;;;0.33;;
19388;SDS011;9830;41.876;23.474;2024-01-06T17:05:36;0.20;;;0.20;;
19388;SDS011;9830;41.876;23.474;2024-01-06T17:08:48;3.00;;;1.13;;
19388;SDS011;9830;41.876;23.474;2024-01-06T17:11:43;0.00;;;0.00;;
19388;SDS011;9830;41.876;23.474;2024-01-06T17:14:45;1.20;;;1.07;;
19388;SDS011;9830;41.876;23.474;2024-01-06T17:17:37;2.47;;;1.70;;
19388;SDS011;9830;41.876;23.474;2024-01-06T17:20:31;16.73;;;1.80;;
19388;SDS011;9830;41.876;23.474;2024-01-06T17:23:25;1.07;;;0.60;;
19388;SDS011;9830;41.876;23.474;2024-01-06T17:26:13;1.10;;;0.97;;
19388;SDS011;9830;41.876;23.474;2024-01-06T17:29:12;4.67;;;0.80;;
19388;SDS011;9830;41.876;23.474;2024-01-06T17:32:26;4.53;;;1.53;;
19388;SDS011;9830;41.876;23.474;2024-01-06T17:35:17;2.93;;;1.13;;
19388;SDS011;9830;41.876;23.474;2024-01-06T17:38:14;0.77;;;0.67;;
19388;SDS011;9830;41.876;23.474;2024-01-06T17:44:18;4.60;;;2.27;;
19388;SDS011;9830;41.876;23.474;2024-01-06T17:47:21;0.97;;;0.83;;
19388;SDS011;9830;41.876;23.474;2024-01-06T17:50:30;0.73;;;0.73;;
19388;SDS011;9830;41.876;23.474;2024-01-06T17:53:24;0.60;;;0.60;;
19388;SDS011;9830;41.876;23.474;2024-01-06T17:56:02;2.93;;;1.77;;
19388;SDS011;9830;41.876;23.474;2024-01-06T17:58:56;2.13;;;1.40;;
19388;SDS011;9830;41.876;23.474;2024-01-06T18:02:02;1.07;;;1.07;;
19388;SDS011;9830;41.876;23.474;2024-01-06T18:04:59;0.90;;;0.90;;
19388;SDS011;9830;41.876;23.474;2024-01-06T18:08:06;1.37;;;1.27;;
19388;SDS011;9830;41.876;23.474;2024-01-06T18:11:05;2.40;;;1.83;;
19388;SDS011;9830;41.876;23.474;2024-01-06T18:14:07;1.03;;;1.03;;
19388;SDS011;9830;41.876;23.474;2024-01-06T18:17:03;1.40;;;1.23;;
19388;SDS011;9830;41.876;23.474;2024-01-06T18:19:59;2.03;;;1.40;;
19388;SDS011;9830;41.876;23.474;2024-01-06T18:22:52;2.53;;;2.23;;
19388;SDS011;9830;41.876;23.474;2024-01-06T18:26:02;3.37;;;1.00;;
19388;SDS011;9830;41.876;23.474;2024-01-06T18:28:59;0.43;;;0.43;;
19388;SDS011;9830;41.876;23.474;2024-01-06T18:35:38;0.30;;;0.30;;
19388;SDS011;9830;41.876;23.474;2024-01-06T18:38:40;0.97;;;0.70;;